sensor_id;sensor_type;location;lat;lon;timestamp;pressure;altitude;pressure_sealevel;temperature;humidity
43691;BME280;29293;52.190;21.226;2023-01-08T00:07:53;100614.34;;;3.21;100.00
43691;BME280;29293;52.190;21.226;2023-01-08T00:23:03;100606.38;;;3.15;100.00
43691;BME280;29293;52.190;21.226;2023-01-08T00:38:14;100607.07;;;3.09;100.00
43691;BME280;29293;52.190;21.226;2023-01-08T00:53:26;100603.38;;;3.04;100.00
43691;BME280;29293;52.190;21.226;2023-01-08T01:08:37;100594.64;;;2.99;100.00
43691;BME280;29293;52.190;21.226;2023-01-08T01:23:48;100580.73;;;2.92;100.00
43691;BME280;29293;52.190;21.226;2023-01-08T01:38:58;100567.77;;;2.86;100.00
43691;BME280;29293;52.190;21.226;2023-01-08T01:54:10;100564.01;;;2.82;100.00
43691;BME280;29293;52.190;21.226;2023-01-08T02:09:25;100548.77;;;2.67;100.00
43691;BME280;29293;52.190;21.226;2023-01-08T02:24:58;100519.48;;;2.21;100.00
43691;BME280;29293;52.190;21.226;2023-01-08T02:40:22;100519.30;;;1.75;100.00
43691;BME280;29293;52.190;21.226;2023-01-08T02:55:37;100517.98;;;1.40;100.00
43691;BME280;29293;52.190;21.226;2023-01-08T03:10:53;100508.39;;;1.13;100.00
43691;BME280;29293;52.190;21.226;2023-01-08T03:26:05;100492.85;;;0.96;100.00
43691;BME280;29293;52.190;21.226;2023-01-08T03:41:20;100491.85;;;0.80;100.00
43691;BME280;29293;52.190;21.226;2023-01-08T03:56:34;100482.56;;;0.88;100.00
43691;BME280;29293;52.190;21.226;2023-01-08T04:11:43;100479.04;;;1.12;100.00
43691;BME280;29293;52.190;21.226;2023-01-08T04:26:52;100481.00;;;1.34;100.00
43691;BME280;29293;52.190;21.226;2023-01-08T04:42:07;100467.76;;;1.51;100.00
43691;BME280;29293;52.190;21.226;2023-01-08T04:57:17;100454.98;;;1.59;100.00
43691;BME280;29293;52.190;21.226;2023-01-08T05:12:28;100458.23;;;1.68;100.00
43691;BME280;29293;52.190;21.226;2023-01-08T05:27:37;100457.46;;;1.71;100.00
43691;BME280;29293;52.190;21.226;2023-01-08T05:43:06;100447.02;;;1.70;100.00
43691;BME280;29293;52.190;21.226;2023-01-08T05:58:19;100446.17;;;1.67;100.00
43691;BME280;29293;52.190;21.226;2023-01-08T06:13:36;100442.83;;;1.69;100.00
43691;BME280;29293;52.190;21.226;2023-01-08T06:28:52;100427.98;;;1.70;100.00
43691;BME280;29293;52.190;21.226;2023-01-08T06:44:03;100433.84;;;1.65;100.00
43691;BME280;29293;52.190;21.226;2023-01-08T06:59:15;100426.86;;;1.56;100.00
43691;BME280;29293;52.190;21.226;2023-01-08T07:14:29;100410.18;;;1.46;100.00
43691;BME280;29293;52.190;21.226;2023-01-08T07:29:40;100397.63;;;1.44;100.00
43691;BME280;29293;52.190;21.226;2023-01-08T07:44:51;100384.79;;;1.51;100.00
43691;BME280;29293;52.190;21.226;2023-01-08T08:00:02;100377.11;;;1.61;100.00
43691;BME280;29293;52.190;21.226;2023-01-08T08:15:14;100355.63;;;1.71;100.00
43691;BME280;29293;52.190;21.226;2023-01-08T08:30:39;100343.34;;;1.84;100.00
43691;BME280;29293;52.190;21.226;2023-01-08T08:45:49;100350.86;;;1.99;100.00
43691;BME280;29293;52.190;21.226;2023-01-08T09:01:02;100335.22;;;2.06;100.00
43691;BME280;29293;52.190;21.226;2023-01-08T09:16:20;100312.50;;;2.09;100.00
43691;BME280;29293;52.190;21.226;2023-01-08T09:31:30;100303.52;;;2.16;100.00
43691;BME280;29293;52.190;21.226;2023-01-08T09:46:39;100286.93;;;2.33;100.00
43691;BME280;29293;52.190;21.226;2023-01-08T10:01:49;100283.00;;;2.66;100.00
43691;BME280;29293;52.190;21.226;2023-01-08T10:17:15;100269.08;;;2.86;100.00
43691;BME280;29293;52.190;21.226;2023-01-08T10:32:29;100262.51;;;2.71;100.00
43691;BME280;29293;52.190;21.226;2023-01-08T10:47:53;100238.98;;;2.60;100.00
43691;BME280;29293;52.190;21.226;2023-01-08T11:03:07;100215.24;;;2.70;100.00
43691;BME280;29293;52.190;21.226;2023-01-08T11:18:25;100193.41;;;2.60;100.00
43691;BME280;29293;52.190;21.226;2023-01-08T11:33:41;100181.23;;;2.64;100.00
43691;BME280;29293;52.190;21.226;2023-01-08T11:49:13;100167.08;;;2.65;100.00
43691;BME280;29293;52.190;21.226;2023-01-08T12:05:04;100151.20;;;2.53;100.00
43691;BME280;29293;52.190;21.226;2023-01-08T12:20:36;100153.73;;;2.43;100.00
43691;BME280;29293;52.190;21.226;2023-01-08T12:35:56;100143.63;;;2.32;100.00
43691;BME280;29293;52.190;21.226;2023-01-08T12:51:14;100128.05;;;2.26;100.00
43691;BME280;29293;52.190;21.226;2023-01-08T13:06:26;100128.66;;;2.21;100.00
43691;BME280;29293;52.190;21.226;2023-01-08T13:21:42;100129.95;;;2.16;100.00
43691;BME280;29293;52.190;21.226;2023-01-08T13:37:01;100133.57;;;2.01;100.00
43691;BME280;29293;52.190;21.226;2023-01-08T13:52:42;100113.31;;;1.89;100.00
43691;BME280;29293;52.190;21.226;2023-01-08T14:07:59;100092.98;;;1.80;100.00
43691;BME280;29293;52.190;21.226;2023-01-08T14:23:22;100089.70;;;1.70;100.00
43691;BME280;29293;52.190;21.226;2023-01-08T14:38:37;100096.00;;;1.63;100.00
43691;BME280;29293;52.190;21.226;2023-01-08T14:54:02;100081.63;;;1.55;100.00
43691;BME280;29293;52.190;21.226;2023-01-08T15:09:23;100081.23;;;1.52;100.00
43691;BME280;29293;52.190;21.226;2023-01-08T15:24:36;100052.10;;;1.50;100.00
43691;BME280;29293;52.190;21.226;2023-01-08T15:39:51;100039.45;;;1.50;100.00
43691;BME280;29293;52.190;21.226;2023-01-08T15:55:20;100028.17;;;1.49;100.00
43691;BME280;29293;52.190;21.226;2023-01-08T16:10:35;100033.77;;;1.48;100.00
43691;BME280;29293;52.190;21.226;2023-01-08T16:25:45;100010.92;;;1.46;100.00
43691;BME280;29293;52.190;21.226;2023-01-08T16:41:10;99985.77;;;1.46;100.00
43691;BME280;29293;52.190;21.226;2023-01-08T16:56:23;99976.55;;;1.47;100.00
43691;BME280;29293;52.190;21.226;2023-01-08T17:11:37;99967.40;;;1.44;100.00
43691;BME280;29293;52.190;21.226;2023-01-08T17:26:49;99973.70;;;1.46;100.00
43691;BME280;29293;52.190;21.226;2023-01-08T17:42:03;99947.14;;;1.47;100.00
43691;BME280;29293;52.190;21.226;2023-01-08T17:57:38;99928.89;;;1.50;100.00
43691;BME280;29293;52.190;21.226;2023-01-08T18:12:50;99931.81;;;1.55;100.00
43691;BME280;29293;52.190;21.226;2023-01-08T18:28:14;99913.98;;;1.62;100.00
43691;BME280;29293;52.190;21.226;2023-01-08T18:43:30;99890.02;;;1.65;100.00
43691;BME280;29293;52.190;21.226;2023-01-08T18:58:45;99892.23;;;1.67;100.00
43691;BME280;29293;52.190;21.226;2023-01-08T19:13:56;99906.34;;;1.72;100.00
43691;BME280;29293;52.190;21.226;2023-01-08T19:29:16;99896.16;;;1.76;100.00
43691;BME280;29293;52.190;21.226;2023-01-08T19:44:28;99889.95;;;1.84;100.00
43691;BME280;29293;52.190;21.226;2023-01-08T19:59:40;99894.55;;;1.93;100.00
43691;BME280;29293;52.190;21.226;2023-01-08T20:14:53;99904.72;;;1.99;100.00
43691;BME280;29293;52.190;21.226;2023-01-08T20:30:05;99900.19;;;2.07;100.00
43691;BME280;29293;52.190;21.226;2023-01-08T20:45:19;99896.89;;;2.13;100.00
43691;BME280;29293;52.190;21.226;2023-01-08T21:00:31;99847.77;;;2.18;100.00
43691;BME280;29293;52.190;21.226;2023-01-08T21:15:44;99783.70;;;2.18;100.00
43691;BME280;29293;52.190;21.226;2023-01-08T21:31:05;99761.38;;;2.18;100.00
43691;BME280;29293;52.190;21.226;2023-01-08T21:46:22;99737.09;;;2.20;100.00
43691;BME280;29293;52.190;21.226;2023-01-08T22:01:31;99724.89;;;2.22;100.00
43691;BME280;29293;52.190;21.226;2023-01-08T22:16:41;99707.27;;;2.26;100.00
43691;BME280;29293;52.190;21.226;2023-01-08T22:31:49;99693.50;;;2.31;100.00
43691;BME280;29293;52.190;21.226;2023-01-08T22:46:58;99683.45;;;2.35;100.00
43691;BME280;29293;52.190;21.226;2023-01-08T23:02:07;99671.52;;;2.36;100.00
43691;BME280;29293;52.190;21.226;2023-01-08T23:17:18;99654.20;;;2.38;100.00
43691;BME280;29293;52.190;21.226;2023-01-08T23:32:27;99619.98;;;2.40;100.00
43691;BME280;29293;52.190;21.226;2023-01-08T23:47:38;99590.20;;;2.37;100.00
